Time;durP1;ratioP1;P1;durP2;ratioP2;P2;SDS_P1;SDS_P2;PMS_P1;PMS_P2;Temp;Humidity;BMP_temperature;BMP_pressure;BME280_temperature;BME280_humidity;BME280_pressure;Samples;Min_cycle;Max_cycle;Signal;HPM_P1;HPM_P2
2021/04/02 00:02:04;;;;;;;27.17;19.32;;;;;;;10.28;67.93;98500.47;2208630;81;21322;-83
2021/04/02 00:05:07;;;;;;;38.40;22.62;;;;;;;10.24;68.36;98500.03;2209043;81;21234;-82
2021/04/02 00:08:09;;;;;;;34.15;20.62;;;;;;;10.18;69.33;98499.41;2208731;81;21282;-82
2021/04/02 00:11:10;;;;;;;35.70;23.80;;;;;;;10.11;71.40;98497.20;2208618;81;21699;-81
2021/04/02 00:14:13;;;;;;;38.95;25.45;;;;;;;10.06;69.74;98499.56;2208587;81;21290;-82
2021/04/02 00:17:14;;;;;;;40.92;25.27;;;;;;;10.02;70.24;98499.59;2208849;81;21313;-82
2021/04/02 00:20:16;;;;;;;39.08;24.20;;;;;;;9.98;70.35;98500.46;2208592;81;21171;-82
2021/04/02 00:23:18;;;;;;;35.90;24.72;;;;;;;9.95;70.37;98487.73;2208810;81;21333;-80
2021/04/02 00:26:19;;;;;;;38.73;25.17;;;;;;;9.94;70.54;98482.19;2208824;81;21306;-81
2021/04/02 00:29:21;;;;;;;34.75;23.35;;;;;;;9.93;70.83;98484.98;2208538;81;21311;-81
2021/04/02 00:32:25;;;;;;;39.53;25.10;;;;;;;9.93;70.70;98478.45;2208921;81;21303;-81
2021/04/02 00:35:27;;;;;;;39.23;25.62;;;;;;;9.92;70.95;98472.91;2208995;81;21290;-81
2021/04/02 00:38:29;;;;;;;44.13;27.27;;;;;;;9.92;71.13;98465.87;2208701;81;21270;-82
2021/04/02 00:41:31;;;;;;;43.50;25.62;;;;;;;9.90;71.52;98473.09;2208617;81;21117;-81
2021/04/02 00:44:33;;;;;;;42.90;27.48;;;;;;;9.89;71.37;98468.86;2208854;81;21302;-82
2021/04/02 00:47:35;;;;;;;43.60;25.25;;;;;;;9.88;72.01;98478.19;2208688;81;21620;-82
2021/04/02 00:50:37;;;;;;;40.88;26.23;;;;;;;9.86;72.13;98484.08;2211117;80;21301;-82
2021/04/02 00:53:39;;;;;;;43.87;26.52;;;;;;;9.82;72.39;98477.09;2219133;80;21693;-82
2021/04/02 00:56:41;;;;;;;38.48;24.02;;;;;;;9.80;72.49;98482.20;2219159;80;21297;-82
2021/04/02 00:59:43;;;;;;;38.75;25.02;;;;;;;9.79;73.80;98485.81;2218832;80;21264;-83
2021/04/02 01:02:45;;;;;;;42.03;26.50;;;;;;;9.73;73.80;98492.55;2218962;80;21282;-82
2021/04/02 01:05:47;;;;;;;45.90;27.45;;;;;;;9.70;74.60;98494.23;2218850;80;21154;-81
2021/04/02 01:08:49;;;;;;;40.63;24.80;;;;;;;9.64;74.32;98490.52;2218810;80;21159;-82
2021/04/02 01:11:51;;;;;;;45.43;26.07;;;;;;;9.61;74.47;98491.38;2219083;80;21304;-81
2021/04/02 01:14:53;;;;;;;39.23;26.23;;;;;;;9.57;75.35;98493.52;2219624;80;21155;-82
2021/04/02 01:17:55;;;;;;;44.98;27.45;;;;;;;9.53;76.42;98497.99;2219365;80;21147;-82
2021/04/02 01:20:56;;;;;;;44.25;25.95;;;;;;;9.45;76.64;98494.14;2219360;80;21178;-82
2021/04/02 01:23:58;;;;;;;40.15;26.48;;;;;;;9.40;76.27;98503.80;2219252;80;21317;-83
2021/04/02 01:27:00;;;;;;;45.95;28.95;;;;;;;9.36;78.32;98499.44;2219346;80;21178;-82
2021/04/02 01:30:02;;;;;;;27.73;18.82;;;;;;;9.28;78.30;98507.84;2219501;80;21324;-82
2021/04/02 01:33:04;;;;;;;27.10;15.48;;;;;;;9.11;80.73;98511.88;2219242;80;21332;-83
2021/04/02 01:36:06;;;;;;;22.58;13.78;;;;;;;8.86;82.14;98538.33;2219313;80;21784;-82
2021/04/02 01:39:08;;;;;;;14.43;9.18;;;;;;;8.50;81.99;98537.53;2219012;80;21349;-81
2021/04/02 01:42:09;;;;;;;16.80;9.60;;;;;;;8.20;81.52;98526.88;2218974;80;21141;-81
2021/04/02 01:45:11;;;;;;;14.83;7.95;;;;;;;7.98;81.61;98535.44;2218997;80;21285;-81
2021/04/02 01:48:13;;;;;;;13.80;8.30;;;;;;;7.69;82.83;98541.20;2218850;80;21329;-81
2021/04/02 01:51:15;;;;;;;11.75;7.08;;;;;;;7.46;83.99;98549.34;2215313;80;21301;-82
2021/04/02 01:54:16;;;;;;;11.78;7.22;;;;;;;7.28;83.73;98549.02;2209032;81;21290;-82
2021/04/02 01:57:18;;;;;;;10.78;6.75;;;;;;;7.15;82.15;98541.38;2209066;81;21313;-81
2021/04/02 02:00:20;;;;;;;6.42;5.33;;;;;;;7.04;83.63;98535.52;2208859;81;21753;-81
2021/04/02 02:03:23;;;;;;;6.55;5.40;;;;;;;6.91;84.52;98549.47;2208990;81;21608;-81
2021/04/02 02:06:24;;;;;;;8.90;6.47;;;;;;;6.76;84.56;98531.05;2209067;81;21297;-82
2021/04/02 02:09:26;;;;;;;5.85;4.70;;;;;;;6.69;84.21;98556.09;2208827;81;21341;-83
2021/04/02 02:12:28;;;;;;;5.55;4.62;;;;;;;6.63;84.70;98547.62;2208814;81;21301;-83
2021/04/02 02:15:30;;;;;;;6.20;4.70;;;;;;;6.53;85.16;98537.83;2208667;81;21334;-82
2021/04/02 02:18:32;;;;;;;9.78;5.72;;;;;;;6.46;84.45;98544.14;2208297;81;21774;-81
2021/04/02 02:21:34;;;;;;;6.22;5.60;;;;;;;6.41;84.09;98543.81;2208939;81;21258;-82
2021/04/02 02:24:35;;;;;;;5.75;5.08;;;;;;;6.36;85.11;98546.55;2208310;81;21270;-82
2021/04/02 02:27:38;;;;;;;4.95;4.55;;;;;;;6.29;85.14;98545.05;2208614;81;21171;-81
2021/04/02 02:30:40;;;;;;;4.37;3.98;;;;;;;6.24;85.37;98549.43;2208761;81;21333;-83
2021/04/02 02:33:42;;;;;;;4.67;4.28;;;;;;;6.20;85.63;98545.98;2208398;81;21163;-81
2021/04/02 02:36:43;;;;;;;4.15;3.85;;;;;;;6.18;85.41;98560.93;2209039;81;21278;-82
2021/04/02 02:39:45;;;;;;;4.00;3.70;;;;;;;6.08;86.25;98576.64;2208890;81;21143;-82
2021/04/02 02:42:47;;;;;;;4.35;4.05;;;;;;;5.96;85.90;98571.38;2208849;81;21718;-82
2021/04/02 02:45:49;;;;;;;4.72;4.42;;;;;;;5.93;85.61;98571.67;2208919;81;21583;-82
2021/04/02 02:48:50;;;;;;;6.22;5.55;;;;;;;5.89;85.54;98592.41;2208896;81;21337;-81
2021/04/02 02:51:52;;;;;;;6.97;6.28;;;;;;;5.78;85.92;98585.69;2204863;80;21746;-82
2021/04/02 02:54:53;;;;;;;5.15;4.75;;;;;;;5.72;84.92;98584.98;2200080;81;21307;-81
2021/04/02 02:57:55;;;;;;;4.75;4.35;;;;;;;5.64;84.41;98603.11;2200210;81;21745;-81
2021/04/02 03:00:57;;;;;;;4.65;4.25;;;;;;;5.53;84.06;98611.95;2200128;81;21548;-81
2021/04/02 03:03:59;;;;;;;4.95;4.50;;;;;;;5.37;83.41;98612.63;2200125;81;21306;-81
2021/04/02 03:07:01;;;;;;;5.10;4.60;;;;;;;5.23;84.02;98612.34;2200173;81;21139;-82
2021/04/02 03:10:03;;;;;;;6.70;6.10;;;;;;;5.10;84.36;98629.08;2200077;81;21176;-81
2021/04/02 03:13:05;;;;;;;4.42;4.12;;;;;;;4.99;84.18;98618.91;2200073;81;21306;-82
2021/04/02 03:16:06;;;;;;;6.00;5.35;;;;;;;4.94;84.61;98622.44;2200450;81;21314;-82
2021/04/02 03:19:08;;;;;;;6.17;5.05;;;;;;;4.88;84.90;98620.42;2199922;81;21298;-83
2021/04/02 03:22:10;;;;;;;5.37;4.87;;;;;;;4.80;84.06;98619.03;2200222;81;21772;-82
2021/04/02 03:25:11;;;;;;;4.92;4.45;;;;;;;4.65;83.70;98634.73;2200140;81;21315;-81
2021/04/02 03:28:13;;;;;;;5.42;4.92;;;;;;;4.47;83.67;98631.59;2200131;81;21145;-81
2021/04/02 03:31:15;;;;;;;5.00;4.50;;;;;;;4.35;84.27;98636.63;2199769;81;21290;-81
2021/04/02 03:34:16;;;;;;;6.10;5.50;;;;;;;4.24;84.52;98649.28;2199719;81;21152;-80
2021/04/02 03:37:18;;;;;;;6.75;6.15;;;;;;;4.13;84.29;98650.75;2199695;81;21160;-82
2021/04/02 03:40:20;;;;;;;7.80;6.12;;;;;;;4.07;84.36;98663.44;2199450;81;21321;-82
2021/04/02 03:43:22;;;;;;;7.45;6.72;;;;;;;4.03;83.97;98665.51;2199396;81;21310;-82
2021/04/02 03:46:24;;;;;;;8.03;6.90;;;;;;;4.02;84.16;98675.50;2199523;81;21783;-82
2021/04/02 03:49:26;;;;;;;9.45;7.80;;;;;;;3.99;84.46;98689.56;2200089;81;21739;-82
2021/04/02 03:52:30;;;;;;;10.05;8.78;;;;;;;3.92;84.55;98687.17;2199747;81;21390;-82
2021/04/02 03:55:32;;;;;;;9.13;7.30;;;;;;;3.90;84.76;98692.16;2199709;81;21782;-82
2021/04/02 03:58:34;;;;;;;9.40;8.40;;;;;;;3.90;84.87;98695.56;2199724;81;21207;-82
2021/04/02 04:01:37;;;;;;;9.90;8.88;;;;;;;3.92;84.94;98698.02;2199779;81;21291;-82
2021/04/02 04:04:39;;;;;;;9.73;8.00;;;;;;;3.91;84.71;98695.91;2200040;81;21330;-81
2021/04/02 04:07:43;;;;;;;12.13;9.80;;;;;;;3.85;85.51;98702.95;2199824;81;21140;-81
2021/04/02 04:10:45;;;;;;;9.88;8.88;;;;;;;3.84;84.90;98702.61;2199965;81;21148;-81
2021/04/02 04:13:46;;;;;;;10.93;8.95;;;;;;;3.87;84.99;98701.52;2199757;81;21129;-81
2021/04/02 04:16:48;;;;;;;10.30;9.08;;;;;;;3.86;85.07;98711.06;2199773;81;21307;-81
2021/04/02 04:19:51;;;;;;;13.25;10.95;;;;;;;3.82;85.03;98707.57;2200018;81;21306;-81
2021/04/02 04:22:54;;;;;;;10.43;9.03;;;;;;;3.83;84.62;98715.20;2199982;81;21306;-82
2021/04/02 04:25:55;;;;;;;10.10;9.00;;;;;;;3.80;84.37;98710.78;2199979;81;21275;-82
2021/04/02 04:28:57;;;;;;;9.30;8.13;;;;;;;3.80;84.40;98709.48;2200213;81;21299;-83
2021/04/02 04:31:58;;;;;;;11.35;9.28;;;;;;;3.82;84.45;98715.34;2200915;81;21266;-81
2021/04/02 04:35:00;;;;;;;12.55;9.45;;;;;;;3.86;84.39;98709.77;2202549;81;21183;-81
2021/04/02 04:38:02;;;;;;;11.88;10.08;;;;;;;3.89;84.10;98715.14;2199919;81;21742;-82
2021/04/02 04:41:04;;;;;;;11.20;9.13;;;;;;;3.91;84.19;98724.88;2199891;81;21747;-82
2021/04/02 04:44:06;;;;;;;13.58;10.23;;;;;;;3.91;84.27;98732.17;2200112;81;21302;-82
2021/04/02 04:47:08;;;;;;;10.60;9.20;;;;;;;3.92;84.05;98732.98;2199977;81;21790;-82
2021/04/02 04:50:10;;;;;;;9.18;8.38;;;;;;;3.93;83.92;98738.06;2199789;81;21303;-82
2021/04/02 04:53:12;;;;;;;9.23;8.33;;;;;;;3.93;83.62;98749.72;2199774;81;21857;-83
2021/04/02 04:56:13;;;;;;;8.60;7.70;;;;;;;3.96;83.27;98749.44;2199762;81;21148;-83
2021/04/02 04:59:16;;;;;;;8.78;7.20;;;;;;;3.97;82.89;98755.44;2200061;81;21298;-82
2021/04/02 05:02:18;;;;;;;8.20;7.40;;;;;;;3.94;82.55;98766.89;2200248;81;21620;-83
2021/04/02 05:05:20;;;;;;;9.83;8.33;;;;;;;3.91;82.09;98763.74;2200339;81;21171;-83
2021/04/02 05:08:22;;;;;;;9.38;8.30;;;;;;;3.83;82.09;98772.19;2200163;81;21108;-82
2021/04/02 05:11:24;;;;;;;8.13;7.17;;;;;;;3.81;82.02;98767.63;2200096;81;21314;-85
2021/04/02 05:14:26;;;;;;;10.05;8.05;;;;;;;3.83;82.02;98761.00;2200557;81;21591;-85
2021/04/02 05:17:28;;;;;;;8.53;6.90;;;;;;;3.84;81.61;98752.28;2200104;81;21184;-86
2021/04/02 05:20:30;;;;;;;8.33;6.75;;;;;;;3.84;81.36;98753.58;2199881;81;21200;-83
2021/04/02 05:23:32;;;;;;;13.05;8.50;;;;;;;3.86;80.99;98744.73;2200587;81;21171;-84
2021/04/02 05:26:34;;;;;;;9.10;8.15;;;;;;;3.81;80.75;98736.54;2199844;81;21333;-83
2021/04/02 05:29:36;;;;;;;10.48;9.23;;;;;;;3.86;80.62;98729.19;2200230;81;21298;-86
2021/04/02 05:32:38;;;;;;;9.85;7.37;;;;;;;3.89;80.49;98729.39;2102965;85;21794;-85
2021/04/02 05:35:40;;;;;;;9.93;8.23;;;;;;;3.87;80.39;98730.01;2200237;81;21317;-84
2021/04/02 05:38:42;;;;;;;10.90;8.40;;;;;;;3.89;80.35;98734.09;2200081;81;21298;-85
2021/04/02 05:41:45;;;;;;;12.28;9.03;;;;;;;3.91;80.29;98737.36;2200173;81;21310;-85
2021/04/02 05:44:47;;;;;;;9.63;7.58;;;;;;;3.96;79.94;98742.95;2200434;81;21298;-83
2021/04/02 05:47:51;;;;;;;31.07;22.05;;;;;;;4.02;79.66;98744.16;2200508;81;21160;-81
2021/04/02 05:50:52;;;;;;;26.37;18.55;;;;;;;4.05;79.55;98756.05;2199493;81;21306;-83
2021/04/02 05:53:55;;;;;;;17.42;14.25;;;;;;;4.11;79.47;98767.14;2199556;81;21326;-87
2021/04/02 05:56:58;;;;;;;16.93;13.93;;;;;;;4.15;79.38;98770.64;2199643;81;21350;-82
2021/04/02 06:00:00;;;;;;;14.93;11.43;;;;;;;4.13;79.30;98764.78;2200157;81;21325;-81
2021/04/02 06:03:02;;;;;;;7.47;6.28;;;;;;;4.15;79.44;98762.05;2199796;81;21176;-83
2021/04/02 06:06:05;;;;;;;8.05;6.70;;;;;;;4.19;78.92;98771.98;2171986;81;21180;-83
2021/04/02 06:09:07;;;;;;;8.15;7.33;;;;;;;4.21;78.55;98764.91;2200484;81;21306;-82
2021/04/02 06:12:09;;;;;;;7.53;5.15;;;;;;;4.30;78.72;98765.86;2199944;81;21310;-82
2021/04/02 06:15:11;;;;;;;4.50;4.08;;;;;;;4.41;75.03;98773.95;2200189;81;21691;-82
2021/04/02 06:18:13;;;;;;;5.60;4.70;;;;;;;4.44;73.31;98778.86;2199858;81;21274;-83
2021/04/02 06:21:15;;;;;;;5.85;5.35;;;;;;;4.39;73.84;98785.77;2200120;81;21128;-83
2021/04/02 06:24:17;;;;;;;4.28;3.80;;;;;;;4.46;73.74;98796.38;2199764;81;21133;-82
2021/04/02 06:27:18;;;;;;;5.58;5.08;;;;;;;4.56;73.48;98790.70;2199937;81;21314;-82
2021/04/02 06:30:20;;;;;;;4.12;3.77;;;;;;;4.78;71.86;98795.58;2199704;81;21363;-83
2021/04/02 06:33:22;;;;;;;5.97;5.12;;;;;;;4.98;71.85;98804.13;2199773;81;21306;-82
2021/04/02 06:36:24;;;;;;;8.23;5.55;;;;;;;5.26;72.04;98804.97;2200177;81;21176;-82
2021/04/02 06:39:26;;;;;;;4.80;3.25;;;;;;;5.59;70.76;98808.78;2199840;81;21319;-83
2021/04/02 06:42:27;;;;;;;6.95;4.70;;;;;;;5.84;70.30;98809.02;2199851;81;21140;-83
2021/04/02 06:45:29;;;;;;;6.00;3.77;;;;;;;6.10;69.40;98819.06;2200012;81;21598;-82
2021/04/02 06:48:31;;;;;;;9.85;6.80;;;;;;;6.16;69.65;98824.16;2199874;81;23593;-83
2021/04/02 06:51:34;;;;;;;23.55;15.80;;;;;;;6.09;68.71;98812.23;2200202;81;21702;-83
2021/04/02 06:54:36;;;;;;;12.50;9.45;;;;;;;5.92;69.29;98824.73;2208771;81;21310;-83
2021/04/02 06:57:38;;;;;;;10.20;8.08;;;;;;;5.78;69.36;98828.63;2208966;81;21321;-82
2021/04/02 07:00:40;;;;;;;4.22;3.92;;;;;;;5.71;70.33;98824.97;2208758;81;21314;-81
2021/04/02 07:03:42;;;;;;;3.60;3.25;;;;;;;5.65;69.94;98835.94;2209194;81;21333;-83
2021/04/02 07:06:44;;;;;;;3.70;3.37;;;;;;;5.60;69.23;98844.18;2209161;81;21349;-81
2021/04/02 07:09:46;;;;;;;3.55;3.05;;;;;;;5.59;69.31;98833.94;2209138;81;21263;-83
2021/04/02 07:12:48;;;;;;;3.30;3.00;;;;;;;5.56;68.31;98858.40;2209217;81;21171;-83
2021/04/02 07:15:50;;;;;;;3.47;3.15;;;;;;;5.60;68.70;98835.09;2208847;81;21766;-81
2021/04/02 07:18:51;;;;;;;4.33;3.80;;;;;;;5.57;68.40;98835.84;2208646;81;21282;-82
2021/04/02 07:21:54;;;;;;;4.37;4.08;;;;;;;5.56;67.16;98837.63;2208885;81;21179;-81
2021/04/02 07:24:56;;;;;;;4.60;3.65;;;;;;;5.59;67.05;98844.33;2208805;81;21769;-82
2021/04/02 07:27:58;;;;;;;4.87;4.28;;;;;;;5.60;67.23;98836.39;2208685;81;21378;-82
2021/04/02 07:31:00;;;;;;;5.53;5.03;;;;;;;5.64;67.66;98839.50;2208834;81;21159;-84
2021/04/02 07:34:02;;;;;;;5.62;4.90;;;;;;;5.49;67.16;98835.29;2208623;81;21789;-83
2021/04/02 07:37:04;;;;;;;4.62;4.22;;;;;;;5.32;66.36;98845.13;2208445;81;21313;-81
2021/04/02 07:40:06;;;;;;;4.00;3.72;;;;;;;5.29;67.08;98835.02;2208834;81;21175;-81
2021/04/02 07:43:08;;;;;;;4.33;4.03;;;;;;;5.23;66.05;98837.72;2209922;81;21645;-82
2021/04/02 07:46:10;;;;;;;4.50;4.17;;;;;;;5.14;66.34;98849.77;2208871;81;21192;-81
2021/04/02 07:49:12;;;;;;;4.20;3.90;;;;;;;5.12;66.77;98834.83;2208777;81;21329;-82
2021/04/02 07:52:14;;;;;;;5.08;4.67;;;;;;;5.21;66.96;98842.24;2208866;80;21337;-81
2021/04/02 07:55:16;;;;;;;6.40;5.90;;;;;;;5.39;67.63;98838.38;2208542;81;21148;-85
2021/04/02 07:58:18;;;;;;;4.85;4.45;;;;;;;5.76;67.50;98838.36;2208771;81;21727;-82
2021/04/02 08:01:19;;;;;;;4.03;3.83;;;;;;;6.05;67.05;98843.88;2208870;81;21294;-81
2021/04/02 08:04:22;;;;;;;3.62;3.42;;;;;;;6.51;66.66;98851.45;2208535;81;21163;-83
2021/04/02 08:07:25;;;;;;;4.05;3.75;;;;;;;7.02;66.32;98862.05;2208724;81;21298;-81
2021/04/02 08:10:27;;;;;;;4.30;4.00;;;;;;;7.15;64.34;98865.57;2208721;81;21715;-82
2021/04/02 08:13:28;;;;;;;4.05;3.77;;;;;;;7.09;64.39;98856.09;2208708;81;21247;-84
2021/04/02 08:16:30;;;;;;;3.83;3.62;;;;;;;7.04;64.08;98864.86;2208742;81;21734;-82
2021/04/02 08:19:32;;;;;;;4.97;4.58;;;;;;;7.00;63.45;98877.02;2208892;81;21318;-82
2021/04/02 08:22:34;;;;;;;5.05;4.75;;;;;;;6.83;64.50;98874.30;2208726;81;21326;-79
2021/04/02 08:25:36;;;;;;;4.35;4.00;;;;;;;6.72;63.74;98880.23;2208974;81;21306;-82
2021/04/02 08:28:38;;;;;;;4.65;4.33;;;;;;;6.72;63.06;98882.84;2208810;81;21203;-82
2021/04/02 08:31:40;;;;;;;3.87;3.67;;;;;;;6.85;63.45;98885.85;2208599;81;21286;-82
2021/04/02 08:38:17;;;;;;;3.55;3.35;;;;;;;6.68;61.61;98882.81;2139375;80;21155;-80
2021/04/02 08:41:20;;;;;;;5.45;4.72;;;;;;;6.37;61.03;98885.78;2208754;81;21270;-80
2021/04/02 08:44:22;;;;;;;4.05;3.30;;;;;;;6.29;62.05;98877.90;2208499;81;21168;-80
2021/04/02 08:47:24;;;;;;;3.87;3.58;;;;;;;6.31;60.84;98879.05;2208676;81;21321;-82
2021/04/02 08:50:27;;;;;;;4.33;3.98;;;;;;;6.33;61.30;98880.56;2208193;81;21338;-81
2021/04/02 08:53:30;;;;;;;5.22;3.67;;;;;;;6.39;62.28;98876.52;2212190;80;21728;-80
2021/04/02 08:56:32;;;;;;;3.60;3.40;;;;;;;6.51;62.25;98871.45;2218801;80;21179;-81
2021/04/02 08:59:33;;;;;;;5.80;5.40;;;;;;;6.78;61.93;98870.53;2218323;80;21285;-82
2021/04/02 09:02:35;;;;;;;4.75;4.35;;;;;;;7.08;62.19;98866.17;2218480;80;21265;-80
2021/04/02 09:05:37;;;;;;;5.03;4.62;;;;;;;7.15;61.04;98867.69;2187996;80;21305;-80
2021/04/02 09:08:39;;;;;;;6.17;4.25;;;;;;;7.02;60.90;98861.56;2218619;80;21301;-81
2021/04/02 09:11:41;;;;;;;4.00;3.70;;;;;;;7.00;60.99;98858.80;2218391;80;21282;-81
2021/04/02 09:14:44;;;;;;;4.47;4.15;;;;;;;6.89;60.74;98862.47;2218832;80;21362;-81
2021/04/02 09:17:46;;;;;;;4.72;4.40;;;;;;;6.97;61.14;98851.30;2218559;80;21308;-81
2021/04/02 09:20:48;;;;;;;4.55;4.15;;;;;;;7.04;61.59;98854.90;2218533;80;21143;-88
2021/04/02 09:23:49;;;;;;;4.47;3.92;;;;;;;7.01;60.66;98855.22;2218980;80;21281;-82
2021/04/02 09:26:51;;;;;;;4.08;3.77;;;;;;;7.00;60.72;98850.50;2219322;80;21298;-88
2021/04/02 09:29:56;;;;;;;3.33;3.12;;;;;;;6.99;59.11;98855.38;2219910;80;21310;-79
2021/04/02 09:32:57;;;;;;;3.27;3.08;;;;;;;6.90;58.19;98858.08;2220005;80;21325;-86
2021/04/02 09:35:59;;;;;;;3.25;3.05;;;;;;;6.82;58.82;98850.55;2220022;80;21147;-86
2021/04/02 09:39:02;;;;;;;3.72;3.45;;;;;;;6.81;59.02;98845.01;2219600;80;21305;-89
2021/04/02 09:42:04;;;;;;;2.40;2.30;;;;;;;6.81;58.22;98834.59;2220220;80;21277;-83
2021/04/02 09:45:06;;;;;;;3.10;2.72;;;;;;;6.85;58.19;98833.31;2219639;80;21155;-88
2021/04/02 09:48:07;;;;;;;4.45;3.10;;;;;;;6.90;57.73;98839.86;2219511;80;21305;-83
2021/04/02 09:51:11;;;;;;;3.98;3.67;;;;;;;6.97;58.65;98841.70;2218870;80;21305;-83
2021/04/02 09:54:13;;;;;;;3.65;3.40;;;;;;;7.00;57.57;98837.48;2208232;80;21151;-85
2021/04/02 09:57:15;;;;;;;3.95;3.55;;;;;;;7.06;58.60;98838.66;2201540;81;21148;-91
2021/04/02 10:00:18;;;;;;;3.00;2.80;;;;;;;7.11;56.95;98840.30;2201297;81;21572;-84
2021/04/02 10:03:33;;;;;;;3.27;3.08;;;;;;;7.12;57.00;98838.03;2200123;81;21298;-85
2021/04/02 10:06:39;;;;;;;5.37;4.17;;;;;;;7.21;57.77;98832.38;2200403;81;21309;-84
2021/04/02 10:09:51;;;;;;;;;;;;;;;;;;;;;
2021/04/02 10:12:44;;;;;;;4.08;3.77;;;;;;;7.30;56.25;98828.36;2194983;81;21347;-83
2021/04/02 10:15:46;;;;;;;3.75;3.45;;;;;;;7.33;57.54;98842.39;2199852;81;21655;-84
2021/04/02 10:18:49;;;;;;;5.28;4.25;;;;;;;7.35;57.43;98829.20;2199653;81;21318;-83
2021/04/02 10:21:51;;;;;;;4.10;3.70;;;;;;;7.44;57.81;98830.06;2199980;81;21274;-84
2021/04/02 10:24:54;;;;;;;4.42;4.05;;;;;;;7.50;56.70;98826.35;2199748;81;21302;-83
2021/04/02 10:27:56;;;;;;;3.25;2.95;;;;;;;7.55;56.30;98825.86;2199544;81;21318;-81
2021/04/02 10:30:59;;;;;;;3.37;3.00;;;;;;;7.61;55.15;98825.24;2199962;81;21172;-83
2021/04/02 10:34:01;;;;;;;3.85;3.50;;;;;;;7.60;54.22;98820.52;2199477;81;21298;-83
2021/04/02 10:37:03;;;;;;;4.08;3.77;;;;;;;7.65;56.76;98814.82;2199562;81;21108;-82
2021/04/02 10:40:05;;;;;;;4.17;3.70;;;;;;;7.77;56.19;98822.66;2199623;81;21294;-82
2021/04/02 10:43:07;;;;;;;3.52;3.33;;;;;;;7.84;56.37;98810.63;2200376;81;21148;-81
2021/04/02 10:46:08;;;;;;;3.42;3.22;;;;;;;7.89;56.19;98807.08;2200022;81;21711;-81
2021/04/02 10:49:13;;;;;;;5.85;3.47;;;;;;;7.99;56.44;98809.05;2199739;81;21314;-82
2021/04/02 10:52:15;;;;;;;3.15;2.95;;;;;;;8.07;55.99;98804.83;2200146;81;21313;-82
2021/04/02 10:55:17;;;;;;;2.42;2.33;;;;;;;8.13;53.96;98819.81;2199785;81;21302;-83
2021/04/02 10:58:19;;;;;;;3.35;3.08;;;;;;;8.11;52.03;98816.06;2200039;81;21310;-82
2021/04/02 11:01:21;;;;;;;2.90;2.70;;;;;;;8.10;53.41;98806.61;2199674;81;21290;-83
2021/04/02 11:04:23;;;;;;;3.30;3.00;;;;;;;8.13;53.59;98800.25;2199704;81;21710;-84
2021/04/02 11:07:25;;;;;;;5.47;4.28;;;;;;;8.18;54.19;98796.68;2199364;81;21274;-85
2021/04/02 11:10:27;;;;;;;3.98;3.58;;;;;;;8.26;54.32;98795.38;2199557;81;21612;-83
2021/04/02 11:13:28;;;;;;;6.87;3.20;;;;;;;8.38;52.98;98797.20;2199784;81;21326;-83
2021/04/02 11:16:30;;;;;;;5.40;2.67;;;;;;;8.36;51.93;98796.55;2182699;81;21332;-84
2021/04/02 11:19:32;;;;;;;3.40;3.00;;;;;;;8.40;52.60;98794.75;2171905;81;21167;-83
2021/04/02 11:22:34;;;;;;;3.67;3.27;;;;;;;8.39;52.23;98789.70;2175653;81;21178;-83
2021/04/02 11:25:35;;;;;;;3.10;2.90;;;;;;;8.40;51.70;98793.93;2162395;81;21155;-83
2021/04/02 11:28:37;;;;;;;8.65;5.28;;;;;;;8.38;51.63;98791.98;2167633;81;21148;-83
2021/04/02 11:31:39;;;;;;;11.05;6.22;;;;;;;8.44;51.67;98786.12;2177787;81;21257;-83
2021/04/02 11:34:42;;;;;;;3.42;2.85;;;;;;;8.50;50.85;98778.92;2179694;81;21690;-83
2021/04/02 11:37:44;;;;;;;2.67;2.47;;;;;;;8.55;51.13;98785.28;2177060;81;21289;-82
2021/04/02 11:40:46;;;;;;;2.42;2.25;;;;;;;8.58;51.74;98771.58;2161565;82;21325;-83
2021/04/02 11:43:47;;;;;;;5.67;3.70;;;;;;;8.62;51.23;98769.80;2161364;82;22339;-84
2021/04/02 11:46:51;;;;;;;2.60;2.40;;;;;;;8.65;51.49;98768.14;2159243;82;21168;-83
2021/04/02 11:49:53;;;;;;;1.67;1.55;;;;;;;8.74;50.91;98759.81;2174991;81;21313;-82
2021/04/02 11:52:54;;;;;;;2.55;2.35;;;;;;;8.72;49.52;98763.90;2198642;81;21325;-82
2021/04/02 11:55:57;;;;;;;1.95;1.85;;;;;;;8.70;49.96;98759.34;2188895;81;21211;-84
2021/04/02 11:58:58;;;;;;;3.40;3.20;;;;;;;8.73;49.55;98753.78;2189397;81;21754;-83
2021/04/02 12:02:00;;;;;;;2.87;2.67;;;;;;;8.81;50.97;98743.81;2170015;81;21635;-83
2021/04/02 12:05:02;;;;;;;4.55;3.33;;;;;;;8.94;50.96;98747.19;2190179;81;21174;-84
2021/04/02 12:08:03;;;;;;;6.03;3.92;;;;;;;9.01;50.25;98741.63;2189505;81;21136;-84
2021/04/02 12:11:05;;;;;;;3.25;3.00;;;;;;;9.01;50.16;98734.60;2189874;81;21136;-82
2021/04/02 12:14:07;;;;;;;2.67;2.45;;;;;;;9.02;48.27;98734.92;2189638;81;21797;-83
2021/04/02 12:17:09;;;;;;;4.30;3.40;;;;;;;9.04;48.82;98726.91;2190534;81;21698;-82
2021/04/02 12:20:11;;;;;;;3.90;3.40;;;;;;;9.01;48.89;98723.34;2190553;81;21687;-82
2021/04/02 12:23:13;;;;;;;5.72;3.75;;;;;;;9.07;49.49;98720.06;2190923;81;21140;-84
2021/04/02 12:26:15;;;;;;;5.92;4.25;;;;;;;9.11;48.90;98711.70;2190725;81;21256;-85
2021/04/02 12:29:38;;;;;;;5.65;3.87;;;;;;;9.18;48.83;98704.00;2190097;81;21291;-86
2021/04/02 12:36:10;;;;;;;;;;;;;;;;;;;;;
2021/04/02 12:39:09;;;;;;;5.20;4.08;;;;;;;9.10;45.12;98702.23;2051668;85;21210;-85
2021/04/02 12:42:11;;;;;;;3.70;3.40;;;;;;;9.09;46.07;98701.11;2095076;85;21696;-84
2021/04/02 12:45:16;;;;;;;3.83;3.17;;;;;;;9.07;46.29;98693.94;2094316;85;21601;-83
2021/04/02 12:48:24;;;;;;;4.03;3.67;;;;;;;9.07;46.17;98687.41;2094987;85;21332;-84
2021/04/02 12:51:25;;;;;;;4.08;3.77;;;;;;;9.10;47.15;98676.61;2095045;85;21151;-84
2021/04/02 12:54:29;;;;;;;4.20;3.90;;;;;;;9.20;47.07;98675.09;2096092;84;21166;-86
2021/04/02 12:57:32;;;;;;;3.87;3.58;;;;;;;9.26;47.27;98669.19;2098745;85;21296;-85
2021/04/02 13:00:34;;;;;;;9.95;5.85;;;;;;;9.31;45.19;98679.43;2098662;85;21203;-83
2021/04/02 13:03:36;;;;;;;4.70;4.30;;;;;;;9.25;45.21;98667.56;2098653;85;21334;-84
2021/04/02 13:06:38;;;;;;;5.42;4.92;;;;;;;9.23;45.32;98667.72;2098663;85;21346;-84
2021/04/02 13:09:41;;;;;;;7.53;4.75;;;;;;;9.23;45.08;98655.15;2098504;85;21154;-84
2021/04/02 13:12:50;;;;;;;4.60;4.05;;;;;;;9.25;44.99;98659.23;2150557;81;21343;-83
2021/04/02 13:15:51;;;;;;;4.90;4.50;;;;;;;9.30;44.75;98656.91;2203812;81;21602;-84
2021/04/02 13:19:02;;;;;;;6.15;5.22;;;;;;;9.38;45.97;98659.97;2206440;81;21306;-81
2021/04/02 13:22:04;;;;;;;5.67;4.85;;;;;;;9.46;46.49;98652.57;2206726;81;21864;-83
2021/04/02 13:25:08;;;;;;;5.97;5.47;;;;;;;9.51;46.68;98646.31;2206902;81;21176;-83
2021/04/02 13:28:10;;;;;;;5.40;4.83;;;;;;;9.58;46.57;98644.63;2206359;81;21186;-84
2021/04/02 13:31:13;;;;;;;4.87;4.50;;;;;;;9.61;46.52;98641.69;2206089;81;21168;-84
2021/04/02 13:34:15;;;;;;;5.47;4.92;;;;;;;9.62;45.92;98641.52;2206693;81;21290;-83
2021/04/02 13:37:16;;;;;;;5.42;5.03;;;;;;;9.63;45.86;98639.22;2204602;80;21155;-90
2021/04/02 13:40:18;;;;;;;5.72;5.20;;;;;;;9.63;45.92;98641.83;2204458;80;21788;-83
2021/04/02 13:43:19;;;;;;;4.78;4.37;;;;;;;9.65;45.77;98636.42;2201905;80;21402;-86
2021/04/02 13:46:22;;;;;;;5.30;4.90;;;;;;;9.65;46.09;98629.39;2200030;80;21143;-89
2021/04/02 13:49:24;;;;;;;4.95;4.53;;;;;;;9.68;46.37;98627.72;2197350;80;21189;-85
2021/04/02 13:52:26;;;;;;;5.60;4.37;;;;;;;9.70;45.53;98631.48;2185468;80;21666;-86
2021/04/02 13:55:27;;;;;;;4.28;3.98;;;;;;;9.64;44.98;98632.19;2189160;80;21328;-85
2021/04/02 13:58:30;;;;;;;6.53;5.20;;;;;;;9.62;45.04;98629.75;2183258;81;21795;-83
2021/04/02 14:01:32;;;;;;;4.08;3.77;;;;;;;9.61;43.79;98629.93;2177823;81;21747;-84
2021/04/02 14:04:34;;;;;;;4.72;4.25;;;;;;;9.64;45.09;98625.65;2175033;81;21298;-83
2021/04/02 14:07:36;;;;;;;5.60;5.10;;;;;;;9.68;45.17;98622.98;2175317;81;21671;-86
2021/04/02 14:10:38;;;;;;;3.22;3.02;;;;;;;9.69;44.61;98620.22;2173534;81;21274;-85
2021/04/02 14:17:01;;;;;;;4.25;3.95;;;;;;;9.64;42.49;98612.08;2173326;80;21248;-85
2021/04/02 14:20:03;;;;;;;4.08;3.67;;;;;;;9.60;42.74;98613.89;2177670;81;21282;-84
2021/04/02 14:23:06;;;;;;;4.83;3.77;;;;;;;9.55;43.06;98609.21;2177700;81;21259;-85
2021/04/02 14:26:07;;;;;;;4.75;4.37;;;;;;;9.55;43.72;98604.48;2177214;81;21144;-83
2021/04/02 14:29:09;;;;;;;3.55;3.33;;;;;;;9.54;43.82;98604.97;2179539;80;21109;-84
2021/04/02 14:32:11;;;;;;;4.30;3.92;;;;;;;9.57;43.72;98602.49;2170944;81;21152;-84
2021/04/02 14:35:12;;;;;;;5.65;3.92;;;;;;;9.55;43.64;98596.64;2177170;81;21696;-81
2021/04/02 14:38:14;;;;;;;3.85;3.55;;;;;;;9.52;43.57;98593.08;2177178;81;21274;-82